createdAt,value
2022-08-05T00:00:23.966Z,76.60
2022-08-05T00:02:55.054Z,77.42
2022-08-05T00:06:02.867Z,78.08
2022-08-05T00:08:26.437Z,77.30
2022-08-05T00:11:01.719Z,78.26
2022-08-05T00:13:39.368Z,77.81
2022-08-05T00:16:12.510Z,79.79
2022-08-05T00:18:42.737Z,80.84
2022-08-05T00:21:15.343Z,81.75
2022-08-05T00:24:05.190Z,83.53
2022-08-05T00:26:34.363Z,82.93
2022-08-05T00:29:02.258Z,83.98
2022-08-05T00:31:53.961Z,84.23
2022-08-05T00:34:54.423Z,83.59
2022-08-05T00:37:11.568Z,85.22
2022-08-05T00:39:57.187Z,85.68
2022-08-05T00:42:32.885Z,85.58
2022-08-05T00:45:00.897Z,85.61
2022-08-05T00:47:52.944Z,86.51
2022-08-05T00:50:16.846Z,86.14
2022-08-05T00:52:45.499Z,85.71
2022-08-05T00:55:16.092Z,86.29
2022-08-05T00:57:55.451Z,85.88
2022-08-05T01:00:27.241Z,85.14
2022-08-05T01:02:55.470Z,84.15
2022-08-05T01:05:24.136Z,84.72
2022-08-05T01:08:39.169Z,85.60
2022-08-05T01:10:52.162Z,84.62
2022-08-05T01:13:27.451Z,85.74
2022-08-05T01:16:21.069Z,85.27
2022-08-05T01:19:17.224Z,85.14
2022-08-05T01:22:04.626Z,85.99
2022-08-05T01:24:59.386Z,85.35
2022-08-05T01:28:00.555Z,85.02
2022-08-05T01:30:33.526Z,86.04
2022-08-05T01:33:08.334Z,86.44
2022-08-05T01:35:50.920Z,86.95
2022-08-05T01:38:24.911Z,86.36
2022-08-05T01:40:59.884Z,86.14
2022-08-05T01:43:33.583Z,85.73
2022-08-05T01:46:07.380Z,85.83
2022-08-05T01:48:49.717Z,86.17
2022-08-05T01:51:19.782Z,85.09
2022-08-05T01:53:57.500Z,84.83
2022-08-05T01:58:10.897Z,84.88
2022-08-05T01:59:27.648Z,85.67
2022-08-05T02:01:58.152Z,84.79
2022-08-05T02:04:29.063Z,85.18
2022-08-05T02:06:59.815Z,84.00
2022-08-05T02:09:31.775Z,86.75
2022-08-05T02:12:06.768Z,87.50
2022-08-05T02:14:48.831Z,88.40
2022-08-05T02:18:28.163Z,88.38
2022-08-05T02:20:16.258Z,88.07
2022-08-05T02:22:56.148Z,87.51
2022-08-05T02:25:27.664Z,86.21
2022-08-05T02:28:02.968Z,85.90
2022-08-05T02:30:54.384Z,88.98
2022-08-05T02:33:35.996Z,90.61
2022-08-05T02:36:10.057Z,90.94
2022-08-05T02:38:44.142Z,89.80
2022-08-05T02:41:23.302Z,89.89
2022-08-05T02:44:02.485Z,91.17
2022-08-05T02:46:53.536Z,91.56
2022-08-05T02:49:26.829Z,92.83
2022-08-05T02:52:04.119Z,94.43
2022-08-05T02:54:36.990Z,94.28
2022-08-05T02:57:10.328Z,94.75
2022-08-05T02:59:56.364Z,96.01
2022-08-05T03:02:30.607Z,97.08
2022-08-05T03:05:00.823Z,99.19
2022-08-05T03:08:00.316Z,100.00
2022-08-05T03:10:24.538Z,100.00
2022-08-05T03:12:54.724Z,99.95
2022-08-05T03:15:24.350Z,100.00
2022-08-05T03:17:55.524Z,99.23
2022-08-05T03:20:24.739Z,99.45
2022-08-05T03:22:57.151Z,98.65
2022-08-05T03:25:33.053Z,98.11
2022-08-05T03:28:18.506Z,98.11
2022-08-05T03:30:48.506Z,98.03
2022-08-05T03:33:18.237Z,99.90
2022-08-05T03:35:47.313Z,100.00
2022-08-05T03:38:16.089Z,100.00
2022-08-05T03:40:48.579Z,100.00
2022-08-05T03:44:09.501Z,100.00
2022-08-05T03:46:08.139Z,99.97
2022-08-05T03:48:37.743Z,100.00
2022-08-05T03:52:38.008Z,99.55
2022-08-05T03:55:51.364Z,98.90
2022-08-05T03:56:58.926Z,97.42
2022-08-05T03:59:47.052Z,97.51
2022-08-05T04:02:38.904Z,97.09
2022-08-05T04:05:13.954Z,97.34
2022-08-05T04:07:57.939Z,97.55
2022-08-05T04:10:30.886Z,97.88
2022-08-05T04:13:00.437Z,97.57
2022-08-05T04:15:33.200Z,97.90
2022-08-05T04:18:06.956Z,96.36
2022-08-05T04:20:37.158Z,97.75
2022-08-05T04:23:05.350Z,98.49
2022-08-05T04:25:56.737Z,100.00
2022-08-05T04:28:30.552Z,98.80
2022-08-05T04:31:01.004Z,98.71
2022-08-05T04:33:54.652Z,98.50
2022-08-05T04:36:45.123Z,99.46
2022-08-05T04:39:07.405Z,98.26
2022-08-05T04:41:37.262Z,98.23
2022-08-05T04:44:09.434Z,97.36
2022-08-05T04:46:38.889Z,96.62
2022-08-05T04:49:12.338Z,97.02
2022-08-05T04:51:44.301Z,97.67
2022-08-05T04:54:12.408Z,96.71
2022-08-05T04:56:40.951Z,96.81
2022-08-05T04:59:21.426Z,96.56
2022-08-05T05:02:35.291Z,96.90
2022-08-05T05:04:47.763Z,94.31
2022-08-05T05:07:18.177Z,95.01
2022-08-05T05:09:46.611Z,93.20
2022-08-05T05:12:14.880Z,93.09
2022-08-05T05:14:49.587Z,92.67
2022-08-05T05:17:23.790Z,92.75
2022-08-05T05:19:56.402Z,92.00
2022-08-05T05:22:26.749Z,92.04
2022-08-05T05:24:56.957Z,91.75
2022-08-05T05:27:44.750Z,91.78
2022-08-05T05:30:15.601Z,91.71
2022-08-05T05:33:00.986Z,90.57
2022-08-05T05:35:37.692Z,90.35
2022-08-05T05:38:09.481Z,89.16
2022-08-05T05:40:48.055Z,88.39
2022-08-05T05:43:28.114Z,88.52
2022-08-05T05:46:15.759Z,87.48
2022-08-05T05:48:44.813Z,86.93
2022-08-05T05:51:23.032Z,85.95
2022-08-05T05:53:57.583Z,85.44
2022-08-05T05:56:32.732Z,86.66
2022-08-05T05:59:06.506Z,86.66
2022-08-05T06:01:38.695Z,85.47
2022-08-05T06:04:11.785Z,83.75
2022-08-05T06:06:42.422Z,81.66
2022-08-05T06:09:17.113Z,81.80
2022-08-05T06:12:04.287Z,82.09
2022-08-05T06:14:40.305Z,83.40
2022-08-05T06:17:22.301Z,84.71
2022-08-05T06:19:56.776Z,86.13
2022-08-05T06:22:28.997Z,85.36
2022-08-05T06:24:59.822Z,86.07
2022-08-05T06:28:10.813Z,88.48
2022-08-05T06:30:19.933Z,91.17
2022-08-05T06:32:50.756Z,89.99
2022-08-05T06:36:03.762Z,90.92
2022-08-05T06:38:11.455Z,94.87
2022-08-05T06:40:44.658Z,96.19
2022-08-05T06:43:57.742Z,97.38
2022-08-05T06:46:03.603Z,97.20
2022-08-05T06:48:52.857Z,96.67
2022-08-05T06:51:29.431Z,98.68
2022-08-05T06:53:58.523Z,99.23
2022-08-05T06:56:27.784Z,99.34
2022-08-05T06:58:55.713Z,98.00
2022-08-05T07:01:27.504Z,100.00
2022-08-05T07:03:59.743Z,100.00
2022-08-05T07:06:27.565Z,100.00
2022-08-05T07:08:56.311Z,100.00
2022-08-05T07:11:30.914Z,100.00
2022-08-05T07:14:20.404Z,100.00
2022-08-05T07:17:58.188Z,100.00
2022-08-05T07:20:31.212Z,100.00
2022-08-05T07:22:35.876Z,100.00
2022-08-05T07:25:24.116Z,100.00
2022-08-05T07:27:57.514Z,100.00
2022-08-05T07:30:32.757Z,100.00
2022-08-05T07:33:01.583Z,100.00
2022-08-05T07:35:55.977Z,100.00
2022-08-05T07:38:32.174Z,100.00
2022-08-05T07:42:09.286Z,100.00
2022-08-05T07:43:56.168Z,100.00
2022-08-05T07:46:26.268Z,100.00
2022-08-05T07:49:01.472Z,100.00
2022-08-05T07:51:40.702Z,100.00
2022-08-05T07:54:22.020Z,100.00
2022-08-05T07:57:01.662Z,100.00
2022-08-05T07:59:41.163Z,100.00
2022-08-05T08:02:16.268Z,100.00
2022-08-05T08:04:46.288Z,100.00
2022-08-05T08:07:15.016Z,100.00
2022-08-05T08:09:43.346Z,100.00
2022-08-05T08:12:35.332Z,100.00
2022-08-05T08:15:03.652Z,100.00
2022-08-05T08:17:32.984Z,100.00
2022-08-05T08:20:22.026Z,100.00
2022-08-05T08:22:53.434Z,97.81
2022-08-05T08:25:27.042Z,96.35
2022-08-05T08:28:18.028Z,97.99
2022-08-05T08:30:49.813Z,94.62
2022-08-05T08:33:19.254Z,95.83
2022-08-05T08:35:53.802Z,94.33
2022-08-05T08:38:37.719Z,93.29
2022-08-05T08:41:08.590Z,92.14
2022-08-05T08:45:19.193Z,89.88
2022-08-05T08:46:30.852Z,88.96
2022-08-05T08:50:04.033Z,88.46
2022-08-05T08:52:03.336Z,89.65
2022-08-05T08:54:33.778Z,89.26
2022-08-05T08:57:06.447Z,88.72
2022-08-05T08:59:41.650Z,87.30
2022-08-05T09:02:18.957Z,85.08
2022-08-05T09:05:16.310Z,84.06
2022-08-05T09:07:55.997Z,84.22
2022-08-05T09:10:27.715Z,84.62
2022-08-05T09:13:04.811Z,82.45
2022-08-05T09:15:37.052Z,83.86
2022-08-05T09:18:09.513Z,85.43
2022-08-05T09:20:38.370Z,83.57
2022-08-05T09:23:19.390Z,83.66
2022-08-05T09:26:00.970Z,83.99
2022-08-05T09:28:32.154Z,85.17
2022-08-05T09:31:43.580Z,85.01
2022-08-05T09:33:56.510Z,86.78
2022-08-05T09:36:27.718Z,87.14
2022-08-05T09:39:18.031Z,88.54
2022-08-05T09:41:58.431Z,87.32
2022-08-05T09:44:40.253Z,86.21
2022-08-05T09:47:12.798Z,84.59
2022-08-05T09:49:54.731Z,84.09
2022-08-05T09:52:31.392Z,83.71
2022-08-05T09:55:55.294Z,83.03
2022-08-05T09:57:49.606Z,83.07
2022-08-05T10:00:24.690Z,82.72
2022-08-05T10:02:54.761Z,77.61
2022-08-05T10:05:29.266Z,76.96
2022-08-05T10:08:35.406Z,77.24
2022-08-05T10:10:54.180Z,75.79
2022-08-05T10:13:47.352Z,74.92
2022-08-05T10:16:34.178Z,75.52
2022-08-05T10:19:09.192Z,74.64
2022-08-05T10:21:40.228Z,74.65
2022-08-05T10:24:13.049Z,74.40
2022-08-05T10:26:51.312Z,74.21
2022-08-05T10:29:23.667Z,74.49
2022-08-05T10:32:52.647Z,74.47
2022-08-05T10:35:00.855Z,75.49
2022-08-05T10:37:37.311Z,74.36
2022-08-05T10:40:22.490Z,74.42
2022-08-05T10:43:12.499Z,76.31
2022-08-05T10:45:42.067Z,78.46
2022-08-05T10:48:35.071Z,84.60
2022-08-05T10:51:21.845Z,94.31
2022-08-05T10:53:58.347Z,99.70
2022-08-05T10:56:28.958Z,99.18
2022-08-05T10:59:11.477Z,98.60
2022-08-05T11:01:55.249Z,99.46
2022-08-05T11:04:32.083Z,98.32
2022-08-05T11:07:09.097Z,100.00
2022-08-05T11:09:46.956Z,100.00
2022-08-05T11:12:45.448Z,98.85
2022-08-05T11:15:21.667Z,97.27
2022-08-05T11:17:59.953Z,96.31
2022-08-05T11:20:39.128Z,95.51
2022-08-05T11:23:56.905Z,94.77
2022-08-05T11:26:28.646Z,91.37
2022-08-05T11:29:12.146Z,90.87
2022-08-05T11:31:58.744Z,90.02
2022-08-05T11:34:51.169Z,90.54
2022-08-05T11:38:28.067Z,88.62
2022-08-05T11:41:14.060Z,86.40
2022-08-05T11:44:06.328Z,83.36
2022-08-05T11:46:37.891Z,84.70
2022-08-05T11:49:28.264Z,85.62
2022-08-05T11:51:57.404Z,84.65
2022-08-05T11:54:33.489Z,85.51
2022-08-05T11:57:07.643Z,85.08
2022-08-05T11:59:50.028Z,85.84
2022-08-05T12:02:30.718Z,85.38
2022-08-05T12:05:01.491Z,87.79
2022-08-05T12:08:07.946Z,89.41
2022-08-05T12:10:39.068Z,85.92
2022-08-05T12:13:16.450Z,87.86
2022-08-05T12:15:50.022Z,88.14
2022-08-05T12:18:32.739Z,88.84
2022-08-05T12:21:11.031Z,88.12
2022-08-05T12:23:43.229Z,89.14
2022-08-05T12:26:11.523Z,88.71
2022-08-05T12:28:39.502Z,86.95
2022-08-05T12:31:09.735Z,88.03
2022-08-05T12:33:38.857Z,87.70
2022-08-05T12:36:09.130Z,86.37
2022-08-05T12:38:39.698Z,87.03
2022-08-05T12:41:13.187Z,88.11
2022-08-05T12:43:52.638Z,87.34
2022-08-05T12:46:28.782Z,87.92
2022-08-05T12:48:58.867Z,87.68
2022-08-05T12:52:14.264Z,85.86
2022-08-05T12:54:26.610Z,85.65
2022-08-05T12:56:55.999Z,84.42
2022-08-05T12:59:27.629Z,84.71
2022-08-05T13:02:19.824Z,81.65
2022-08-05T13:04:54.304Z,80.96
2022-08-05T13:07:55.815Z,77.82
2022-08-05T13:10:15.126Z,78.24
2022-08-05T13:12:57.595Z,75.06
2022-08-05T13:15:41.607Z,71.47
2022-08-05T13:18:20.625Z,69.78
2022-08-05T13:20:49.393Z,70.49
2022-08-05T13:23:22.310Z,67.91
2022-08-05T13:25:52.603Z,68.54
2022-08-05T13:28:26.972Z,66.48
2022-08-05T13:30:54.853Z,66.90
2022-08-05T13:34:23.514Z,65.80
2022-08-05T13:36:14.504Z,67.98
2022-08-05T13:38:43.192Z,68.97
2022-08-05T13:41:11.997Z,67.73
2022-08-05T13:43:45.266Z,67.36
2022-08-05T13:47:01.587Z,69.01
2022-08-05T13:49:15.296Z,68.53
2022-08-05T13:51:46.087Z,68.13
2022-08-05T13:54:15.973Z,67.65
2022-08-05T13:56:50.859Z,67.62
2022-08-05T13:59:21.446Z,66.79
2022-08-05T14:01:58.090Z,68.34
2022-08-05T14:04:49.491Z,68.47
2022-08-05T14:07:56.414Z,69.01
2022-08-05T14:10:08.412Z,69.90
2022-08-05T14:12:37.086Z,68.36
2022-08-05T14:16:05.834Z,67.79
2022-08-05T14:17:54.941Z,67.29
2022-08-05T14:20:29.434Z,64.89
2022-08-05T14:22:57.438Z,65.19
2022-08-05T14:25:28.256Z,64.38
2022-08-05T14:27:58.398Z,65.24
2022-08-05T14:30:27.802Z,65.84
2022-08-05T14:32:57.056Z,66.11
2022-08-05T14:35:50.024Z,65.69
2022-08-05T14:38:33.242Z,66.21
2022-08-05T14:41:05.596Z,65.07
2022-08-05T14:44:01.594Z,63.60
2022-08-05T14:46:28.379Z,62.26
2022-08-05T14:48:58.715Z,62.02
2022-08-05T14:51:30.664Z,62.62
2022-08-05T14:54:26.549Z,62.78
2022-08-05T14:56:48.633Z,60.94
2022-08-05T14:59:16.461Z,58.50
2022-08-05T15:01:47.879Z,57.45
2022-08-05T15:04:17.339Z,57.64
2022-08-05T15:06:49.468Z,58.02
2022-08-05T15:09:51.099Z,58.89
2022-08-05T15:12:09.534Z,58.10
2022-08-05T15:14:42.227Z,56.06
2022-08-05T15:17:46.405Z,56.87
2022-08-05T15:20:06.374Z,58.45
2022-08-05T15:22:37.832Z,59.10
2022-08-05T15:25:13.748Z,58.21
2022-08-05T15:27:42.966Z,59.09
2022-08-05T15:30:20.197Z,58.75
2022-08-05T15:32:50.430Z,55.98
2022-08-05T15:35:18.429Z,54.46
2022-08-05T15:38:33.027Z,55.08
2022-08-05T15:41:00.568Z,54.35
2022-08-05T15:43:27.039Z,54.77
2022-08-05T15:46:00.694Z,51.50
2022-08-05T15:48:29.957Z,51.96
2022-08-05T15:51:03.627Z,52.45
2022-08-05T15:53:38.589Z,52.72
2022-08-05T15:56:20.589Z,54.09
2022-08-05T15:58:49.888Z,52.63
2022-08-05T16:01:20.092Z,52.96
2022-08-05T16:03:50.439Z,52.50
2022-08-05T16:06:20.914Z,53.19
2022-08-05T16:08:53.606Z,52.99
2022-08-05T16:11:42.441Z,50.80
2022-08-05T16:14:17.159Z,50.39
2022-08-05T16:16:45.992Z,50.20
2022-08-05T16:19:18.832Z,49.19
2022-08-05T16:21:59.444Z,49.07
2022-08-05T16:24:39.600Z,50.70
2022-08-05T16:27:16.017Z,50.72
2022-08-05T16:29:47.457Z,49.78
2022-08-05T16:32:23.454Z,49.15
2022-08-05T16:34:57.112Z,47.95
2022-08-05T16:38:02.930Z,48.57
2022-08-05T16:40:24.717Z,49.68
2022-08-05T16:42:56.200Z,51.61
2022-08-05T16:46:04.312Z,51.41
2022-08-05T16:48:25.724Z,49.32
2022-08-05T16:50:54.154Z,50.17
2022-08-05T16:53:32.061Z,50.76
2022-08-05T16:56:00.664Z,52.47
2022-08-05T16:58:31.402Z,53.29
2022-08-05T17:01:00.865Z,53.24
2022-08-05T17:03:29.163Z,51.43
2022-08-05T17:06:00.652Z,49.29
2022-08-05T17:08:36.147Z,49.60
2022-08-05T17:11:18.096Z,51.30
2022-08-05T17:13:47.577Z,52.43
2022-08-05T17:16:35.859Z,52.81
2022-08-05T17:19:07.472Z,53.58
2022-08-05T17:21:43.783Z,52.92
2022-08-05T17:24:36.549Z,49.92
2022-08-05T17:27:07.275Z,44.02
2022-08-05T17:29:40.938Z,39.21
2022-08-05T17:32:17.086Z,37.73
2022-08-05T17:34:47.859Z,37.04
2022-08-05T17:37:39.303Z,36.97
2022-08-05T17:40:10.318Z,36.00
2022-08-05T17:42:42.988Z,37.06
2022-08-05T17:45:22.892Z,35.66
2022-08-05T17:47:54.986Z,37.08
2022-08-05T17:50:28.808Z,38.30
2022-08-05T17:53:00.478Z,38.97
2022-08-05T17:55:37.257Z,38.87
2022-08-05T17:58:10.903Z,39.44
2022-08-05T18:00:45.164Z,40.20
2022-08-05T18:03:39.193Z,40.38
2022-08-05T18:06:11.935Z,40.59
2022-08-05T18:08:52.026Z,41.13
2022-08-05T18:11:23.854Z,41.60
2022-08-05T18:13:52.933Z,41.64
2022-08-05T18:16:22.704Z,41.50
2022-08-05T18:18:51.008Z,41.33
2022-08-05T18:21:22.816Z,41.10
2022-08-05T18:23:54.566Z,41.61
2022-08-05T18:26:27.512Z,41.72
2022-08-05T18:28:57.515Z,42.00
2022-08-05T18:31:33.835Z,41.54
2022-08-05T18:34:06.237Z,41.81
2022-08-05T18:36:39.926Z,42.16
2022-08-05T18:39:09.788Z,42.65
2022-08-05T18:42:06.352Z,43.25
2022-08-05T18:44:48.915Z,43.39
2022-08-05T18:47:26.763Z,43.65
2022-08-05T18:50:13.193Z,44.01
2022-08-05T18:52:50.784Z,43.39
2022-08-05T18:55:22.425Z,43.81
2022-08-05T18:57:53.870Z,44.15
2022-08-05T19:00:28.892Z,44.77
2022-08-05T19:03:03.708Z,44.97
2022-08-05T19:06:11.605Z,45.24
2022-08-05T19:08:22.351Z,45.33
2022-08-05T19:11:04.639Z,45.56
2022-08-05T19:13:36.179Z,46.16
2022-08-05T19:16:25.003Z,46.58
2022-08-05T19:18:57.910Z,46.22
2022-08-05T19:21:34.438Z,46.37
2022-08-05T19:24:08.983Z,46.63
2022-08-05T19:26:54.650Z,46.34
2022-08-05T19:29:35.446Z,46.09
2022-08-05T19:32:05.445Z,46.33
2022-08-05T19:34:37.876Z,46.42
2022-08-05T19:37:06.485Z,46.16
2022-08-05T19:39:45.677Z,46.68
2022-08-05T19:42:35.403Z,46.80
2022-08-05T19:45:06.500Z,46.97
2022-08-05T19:47:37.577Z,47.88
2022-08-05T19:50:11.826Z,47.56
2022-08-05T19:52:40.986Z,48.15
2022-08-05T19:56:15.439Z,48.25
2022-08-05T19:58:14.507Z,48.57
2022-08-05T20:00:47.903Z,49.04
2022-08-05T20:03:16.112Z,49.29
2022-08-05T20:05:51.213Z,49.50
2022-08-05T20:08:19.925Z,49.74
2022-08-05T20:10:49.396Z,49.41
2022-08-05T20:13:29.862Z,49.69
2022-08-05T20:16:07.096Z,49.95
2022-08-05T20:18:35.829Z,50.07
2022-08-05T20:21:07.025Z,50.09
2022-08-05T20:23:51.265Z,50.09
2022-08-05T20:26:23.363Z,50.29
2022-08-05T20:28:54.012Z,50.95
2022-08-05T20:31:28.438Z,51.15
2022-08-05T20:34:11.560Z,51.49
2022-08-05T20:36:43.490Z,51.52
2022-08-05T20:39:13.001Z,51.79
2022-08-05T20:41:43.430Z,51.90
2022-08-05T20:44:17.876Z,51.71
2022-08-05T20:46:47.594Z,51.91
2022-08-05T20:49:18.446Z,51.90
2022-08-05T20:51:54.174Z,52.04
2022-08-05T20:54:22.556Z,52.61
2022-08-05T20:56:52.714Z,52.89
2022-08-05T20:59:26.467Z,53.21
2022-08-05T21:01:57.847Z,53.22
2022-08-05T21:04:26.960Z,53.30
2022-08-05T21:06:56.721Z,53.57
2022-08-05T21:09:25.932Z,53.87
2022-08-05T21:12:08.943Z,54.11
2022-08-05T21:14:39.611Z,54.17
2022-08-05T21:17:07.523Z,54.42
2022-08-05T21:19:47.528Z,54.20
2022-08-05T21:22:21.980Z,54.91
2022-08-05T21:24:52.525Z,55.42
2022-08-05T21:27:24.992Z,54.96
2022-08-05T21:29:54.200Z,55.19
2022-08-05T21:32:24.449Z,55.02
2022-08-05T21:35:06.704Z,55.37
2022-08-05T21:37:47.328Z,55.62
2022-08-05T21:40:23.346Z,56.14
2022-08-05T21:42:52.013Z,56.32
2022-08-05T21:45:25.118Z,56.47
2022-08-05T21:48:08.166Z,56.41
2022-08-05T21:50:36.761Z,56.85
2022-08-05T21:53:16.142Z,56.97
2022-08-05T21:56:05.308Z,57.19
2022-08-05T21:58:32.713Z,56.87
2022-08-05T22:01:01.132Z,56.60
2022-08-05T22:03:52.363Z,57.63
2022-08-05T22:06:22.847Z,57.93
2022-08-05T22:09:13.858Z,58.07
2022-08-05T22:11:43.496Z,58.61
2022-08-05T22:14:35.141Z,58.45
2022-08-05T22:17:06.687Z,58.60
2022-08-05T22:20:01.660Z,58.53
2022-08-05T22:22:28.001Z,58.86
2022-08-05T22:25:21.545Z,59.09
2022-08-05T22:28:08.857Z,59.18
2022-08-05T22:30:55.345Z,59.64
2022-08-05T22:33:57.913Z,59.83
2022-08-05T22:36:15.359Z,60.11
2022-08-05T22:38:48.011Z,60.59
2022-08-05T22:42:04.399Z,60.59
2022-08-05T22:44:08.651Z,60.65
2022-08-05T22:46:40.149Z,60.40
2022-08-05T22:49:12.404Z,60.53
2022-08-05T22:52:04.937Z,60.94
2022-08-05T22:54:36.542Z,61.22
2022-08-05T22:57:06.264Z,61.64
2022-08-05T22:59:46.114Z,61.28
2022-08-05T23:02:17.719Z,61.42
2022-08-05T23:04:51.391Z,61.33
2022-08-05T23:07:22.000Z,61.06
2022-08-05T23:09:57.806Z,61.21
2022-08-05T23:12:32.988Z,61.21
2022-08-05T23:15:03.585Z,61.21
2022-08-05T23:17:37.445Z,60.95
2022-08-05T23:20:20.427Z,61.15
2022-08-05T23:22:56.301Z,61.61
2022-08-05T23:25:54.847Z,61.87
2022-08-05T23:28:15.804Z,61.35
2022-08-05T23:30:53.516Z,61.23
2022-08-05T23:34:02.897Z,61.50
2022-08-05T23:36:10.646Z,62.29
2022-08-05T23:38:38.793Z,61.80
2022-08-05T23:41:06.959Z,62.21
2022-08-05T23:44:05.229Z,62.69
2022-08-05T23:46:24.033Z,62.76
2022-08-05T23:48:59.608Z,62.49
2022-08-05T23:51:54.238Z,63.52
2022-08-05T23:54:25.070Z,64.17
2022-08-05T23:56:58.241Z,64.45
